Terminal Aerodrome Forecast
Issued by NWS Oklahoma City, OK

Home | Current Version | Previous Version | Text Only | Print | Product List | Glossary On
Versions: 1 2 3 4 5 6 7 8 9 10 11 12 13 14 15 16 17 18 19 20 21 22 23 24 25 26 27 28 29 30 31 32 33 34
000
FTUS44 KOUN 272336
TAFOUN
TAF
KOUN 272336Z 2800/2824 03020G25KT 5SM -RA BR BKN008 OVC025
     FM280200 01018KT 6SM BR SCT015 OVC025
     FM281300 01015G20KT 5SM -RA BR OVC020
     FM281800 01010G15KT P6SM OVC040=

USA.gov is the U.S. government's official web portal to all federal, state and local government web resources and services.